Hartford, Connecticut
Traffic Map
Current Weather Conditions
Hartford, Connecticut
Overcast Light Snow
Overcast
-6°
Feels Like: -13°
Wind Chill: -13° Ceiling: 2000
Heat Index: -6° Visibility: 1mi
Dew Point: -8° Wind: 13mph
Humidity: 85% Direction: 10° (N)
Pressure: 29.98in Gusts: 0mph
Raw Report DataKHFD 262202Z 01011KT 1SM -SN BR VV020 M06/M08 A2998 RMK AO2 P0000 T10611083
Traffic Incident Summary
Active as of:
Severity:
Category:
InformationThere was an issue retrieving the traffic information for this location. Please try a different location or try again shortly.
Advertisements
Track Severe Weather on mobile